sensor_id;sensor_type;location;lat;lon;timestamp;pressure;altitude;pressure_sealevel;temperature;humidity
58761;BME280;44529;47.464;19.014;2023-05-08T00:01:32;100669.50;;;11.27;74.03
58761;BME280;44529;47.464;19.014;2023-05-08T00:04:35;100674.44;;;11.25;74.90
58761;BME280;44529;47.464;19.014;2023-05-08T00:07:37;100680.19;;;11.09;75.68
58761;BME280;44529;47.464;19.014;2023-05-08T00:10:40;100681.97;;;11.14;75.33
58761;BME280;44529;47.464;19.014;2023-05-08T00:13:42;100672.06;;;11.09;75.77
58761;BME280;44529;47.464;19.014;2023-05-08T00:16:45;100670.75;;;11.07;75.37
58761;BME280;44529;47.464;19.014;2023-05-08T00:19:47;100674.56;;;11.06;75.55
58761;BME280;44529;47.464;19.014;2023-05-08T00:22:50;100673.69;;;10.97;76.01
58761;BME280;44529;47.464;19.014;2023-05-08T00:25:52;100678.00;;;10.98;75.79
58761;BME280;44529;47.464;19.014;2023-05-08T00:28:55;100667.69;;;10.86;76.27
58761;BME280;44529;47.464;19.014;2023-05-08T00:31:57;100675.91;;;10.81;76.80
58761;BME280;44529;47.464;19.014;2023-05-08T00:34:59;100678.91;;;10.79;76.55
58761;BME280;44529;47.464;19.014;2023-05-08T00:38:02;100677.53;;;10.82;76.44
58761;BME280;44529;47.464;19.014;2023-05-08T00:41:04;100675.19;;;10.75;76.27
58761;BME280;44529;47.464;19.014;2023-05-08T00:44:06;100674.41;;;10.75;76.35
58761;BME280;44529;47.464;19.014;2023-05-08T00:47:09;100672.72;;;10.79;76.79
58761;BME280;44529;47.464;19.014;2023-05-08T00:50:12;100672.81;;;10.74;77.03
58761;BME280;44529;47.464;19.014;2023-05-08T00:53:16;100676.94;;;10.71;77.02
58761;BME280;44529;47.464;19.014;2023-05-08T00:56:19;100684.34;;;10.66;77.63
58761;BME280;44529;47.464;19.014;2023-05-08T00:59:23;100677.63;;;10.63;77.88
58761;BME280;44529;47.464;19.014;2023-05-08T01:02:25;100685.75;;;10.63;77.82
58761;BME280;44529;47.464;19.014;2023-05-08T01:05:28;100678.72;;;10.62;78.75
58761;BME280;44529;47.464;19.014;2023-05-08T01:08:31;100688.47;;;10.63;79.26
58761;BME280;44529;47.464;19.014;2023-05-08T01:11:42;100687.03;;;10.52;78.80
58761;BME280;44529;47.464;19.014;2023-05-08T01:21:44;100706.66;;;10.44;79.36
58761;BME280;44529;47.464;19.014;2023-05-08T01:25:15;100712.75;;;10.36;80.00
58761;BME280;44529;47.464;19.014;2023-05-08T01:32:13;100717.44;;;10.30;81.10
58761;BME280;44529;47.464;19.014;2023-05-08T01:35:25;100720.97;;;10.30;81.22
58761;BME280;44529;47.464;19.014;2023-05-08T01:38:46;100718.06;;;10.27;81.46
58761;BME280;44529;47.464;19.014;2023-05-08T01:41:57;100720.53;;;10.23;81.54
58761;BME280;44529;47.464;19.014;2023-05-08T01:45:10;100721.06;;;10.25;82.02
58761;BME280;44529;47.464;19.014;2023-05-08T01:48:21;100724.19;;;10.14;81.75
58761;BME280;44529;47.464;19.014;2023-05-08T01:51:27;100726.19;;;10.08;82.09
58761;BME280;44529;47.464;19.014;2023-05-08T01:54:40;100726.97;;;10.09;82.03
58761;BME280;44529;47.464;19.014;2023-05-08T01:57:46;100721.47;;;10.00;82.20
58761;BME280;44529;47.464;19.014;2023-05-08T02:00:51;100731.66;;;10.03;82.54
58761;BME280;44529;47.464;19.014;2023-05-08T02:03:54;100732.03;;;9.96;82.73
58761;BME280;44529;47.464;19.014;2023-05-08T02:06:58;100731.63;;;9.89;82.99
58761;BME280;44529;47.464;19.014;2023-05-08T02:10:03;100729.91;;;9.80;83.17
58761;BME280;44529;47.464;19.014;2023-05-08T02:13:06;100739.00;;;9.84;83.64
58761;BME280;44529;47.464;19.014;2023-05-08T02:16:10;100739.38;;;9.77;84.02
58761;BME280;44529;47.464;19.014;2023-05-08T02:19:14;100740.97;;;9.78;84.39
58761;BME280;44529;47.464;19.014;2023-05-08T02:22:18;100742.78;;;9.83;84.19
58761;BME280;44529;47.464;19.014;2023-05-08T02:25:23;100746.47;;;9.73;84.31
58761;BME280;44529;47.464;19.014;2023-05-08T02:28:28;100743.84;;;9.68;84.84
58761;BME280;44529;47.464;19.014;2023-05-08T02:31:32;100747.41;;;9.63;85.31
58761;BME280;44529;47.464;19.014;2023-05-08T02:34:36;100757.72;;;9.61;85.34
58761;BME280;44529;47.464;19.014;2023-05-08T02:37:50;100749.37;;;9.58;85.57
58761;BME280;44529;47.464;19.014;2023-05-08T02:40:55;100751.28;;;9.57;85.62
58761;BME280;44529;47.464;19.014;2023-05-08T02:43:59;100748.28;;;9.40;87.07
58761;BME280;44529;47.464;19.014;2023-05-08T02:53:49;100744.63;;;9.31;86.83
58761;BME280;44529;47.464;19.014;2023-05-08T02:56:57;100749.28;;;9.25;86.98
58761;BME280;44529;47.464;19.014;2023-05-08T03:03:47;100751.78;;;9.21;88.29
58761;BME280;44529;47.464;19.014;2023-05-08T03:06:53;100759.13;;;9.16;88.56
58761;BME280;44529;47.464;19.014;2023-05-08T03:10:01;100760.38;;;9.23;88.16
58761;BME280;44529;47.464;19.014;2023-05-08T03:13:06;100754.19;;;9.23;87.67
58761;BME280;44529;47.464;19.014;2023-05-08T03:16:15;100760.38;;;9.23;87.78
58761;BME280;44529;47.464;19.014;2023-05-08T03:19:25;100754.88;;;9.10;87.98
58761;BME280;44529;47.464;19.014;2023-05-08T03:22:29;100759.84;;;9.03;88.87
58761;BME280;44529;47.464;19.014;2023-05-08T03:25:34;100765.72;;;9.05;88.93
58761;BME280;44529;47.464;19.014;2023-05-08T03:28:37;100757.12;;;9.03;88.83
58761;BME280;44529;47.464;19.014;2023-05-08T03:31:41;100756.69;;;8.95;89.25
58761;BME280;44529;47.464;19.014;2023-05-08T03:34:45;100764.28;;;8.88;89.62
58761;BME280;44529;47.464;19.014;2023-05-08T03:37:48;100759.66;;;8.94;89.84
58761;BME280;44529;47.464;19.014;2023-05-08T03:40:51;100760.75;;;8.93;90.43
58761;BME280;44529;47.464;19.014;2023-05-08T03:43:54;100755.59;;;8.97;90.18
58761;BME280;44529;47.464;19.014;2023-05-08T03:46:58;100761.44;;;9.04;90.22
58761;BME280;44529;47.464;19.014;2023-05-08T03:50:01;100763.47;;;9.12;89.45
58761;BME280;44529;47.464;19.014;2023-05-08T03:53:04;100764.00;;;9.14;89.67
58761;BME280;44529;47.464;19.014;2023-05-08T03:56:07;100761.88;;;9.11;89.61
58761;BME280;44529;47.464;19.014;2023-05-08T03:59:27;100765.25;;;9.21;89.59
58761;BME280;44529;47.464;19.014;2023-05-08T04:02:45;100765.97;;;9.27;89.73
58761;BME280;44529;47.464;19.014;2023-05-08T04:09:03;100769.66;;;9.36;89.48
58761;BME280;44529;47.464;19.014;2023-05-08T04:12:30;100772.84;;;9.38;89.25
58761;BME280;44529;47.464;19.014;2023-05-08T04:15:37;100780.75;;;9.35;89.39
58761;BME280;44529;47.464;19.014;2023-05-08T04:18:44;100779.06;;;9.39;89.02
58761;BME280;44529;47.464;19.014;2023-05-08T04:21:49;100779.84;;;9.39;88.72
58761;BME280;44529;47.464;19.014;2023-05-08T04:24:56;100785.00;;;9.41;88.86
58761;BME280;44529;47.464;19.014;2023-05-08T04:28:00;100789.06;;;9.38;89.85
58761;BME280;44529;47.464;19.014;2023-05-08T04:31:04;100792.28;;;9.40;89.97
58761;BME280;44529;47.464;19.014;2023-05-08T04:34:07;100799.66;;;9.54;90.06
58761;BME280;44529;47.464;19.014;2023-05-08T04:37:24;100802.22;;;9.64;89.75
58761;BME280;44529;47.464;19.014;2023-05-08T04:40:28;100798.78;;;9.77;89.28
58761;BME280;44529;47.464;19.014;2023-05-08T04:43:31;100808.06;;;9.90;80.90
58761;BME280;44529;47.464;19.014;2023-05-08T04:46:33;100811.53;;;10.09;84.11
58761;BME280;44529;47.464;19.014;2023-05-08T04:49:36;100819.66;;;10.28;76.23
58761;BME280;44529;47.464;19.014;2023-05-08T04:52:38;100826.44;;;10.44;72.03
58761;BME280;44529;47.464;19.014;2023-05-08T04:55:42;100828.94;;;10.54;69.52
58761;BME280;44529;47.464;19.014;2023-05-08T04:58:44;100829.78;;;10.69;67.96
58761;BME280;44529;47.464;19.014;2023-05-08T05:01:47;100828.59;;;10.75;66.07
58761;BME280;44529;47.464;19.014;2023-05-08T05:04:49;100834.28;;;10.73;67.65
58761;BME280;44529;47.464;19.014;2023-05-08T05:07:52;100837.22;;;10.77;66.36
58761;BME280;44529;47.464;19.014;2023-05-08T05:10:54;100838.91;;;10.87;66.63
58761;BME280;44529;47.464;19.014;2023-05-08T05:13:57;100841.25;;;10.93;66.01
58761;BME280;44529;47.464;19.014;2023-05-08T05:17:00;100842.16;;;11.02;65.07
58761;BME280;44529;47.464;19.014;2023-05-08T05:20:03;100837.03;;;11.01;65.34
58761;BME280;44529;47.464;19.014;2023-05-08T05:23:07;100841.63;;;11.00;65.37
58761;BME280;44529;47.464;19.014;2023-05-08T05:26:10;100841.38;;;11.16;63.85
58761;BME280;44529;47.464;19.014;2023-05-08T05:29:12;100848.16;;;11.13;63.90
58761;BME280;44529;47.464;19.014;2023-05-08T05:32:15;100847.06;;;11.14;64.95
58761;BME280;44529;47.464;19.014;2023-05-08T05:35:17;100849.41;;;11.21;64.64
58761;BME280;44529;47.464;19.014;2023-05-08T05:38:20;100851.50;;;11.24;65.62
58761;BME280;44529;47.464;19.014;2023-05-08T05:41:22;100850.78;;;11.32;65.29
58761;BME280;44529;47.464;19.014;2023-05-08T05:44:25;100855.91;;;11.33;65.41
58761;BME280;44529;47.464;19.014;2023-05-08T05:47:28;100864.53;;;11.35;65.66
58761;BME280;44529;47.464;19.014;2023-05-08T05:50:31;100862.00;;;11.39;66.94
58761;BME280;44529;47.464;19.014;2023-05-08T05:53:34;100869.62;;;11.51;63.36
58761;BME280;44529;47.464;19.014;2023-05-08T05:56:36;100876.25;;;11.45;62.45
58761;BME280;44529;47.464;19.014;2023-05-08T05:59:39;100874.06;;;11.47;61.75
58761;BME280;44529;47.464;19.014;2023-05-08T06:02:42;100875.66;;;11.34;62.09
58761;BME280;44529;47.464;19.014;2023-05-08T06:05:46;100872.84;;;11.39;62.14
58761;BME280;44529;47.464;19.014;2023-05-08T06:08:48;100872.34;;;11.37;63.29
58761;BME280;44529;47.464;19.014;2023-05-08T06:11:51;100873.22;;;11.46;61.74
58761;BME280;44529;47.464;19.014;2023-05-08T06:14:54;100875.94;;;11.46;61.41
58761;BME280;44529;47.464;19.014;2023-05-08T06:17:56;100867.31;;;11.44;61.29
58761;BME280;44529;47.464;19.014;2023-05-08T06:20:59;100871.94;;;11.44;62.18
58761;BME280;44529;47.464;19.014;2023-05-08T06:24:02;100869.75;;;11.59;62.23
58761;BME280;44529;47.464;19.014;2023-05-08T06:27:04;100875.03;;;11.64;62.01
58761;BME280;44529;47.464;19.014;2023-05-08T06:30:07;100872.84;;;11.66;61.01
58761;BME280;44529;47.464;19.014;2023-05-08T06:33:11;100874.81;;;11.75;60.82
58761;BME280;44529;47.464;19.014;2023-05-08T06:36:14;100877.63;;;11.83;60.31
58761;BME280;44529;47.464;19.014;2023-05-08T06:39:16;100869.81;;;11.68;60.20
58761;BME280;44529;47.464;19.014;2023-05-08T06:42:19;100878.03;;;11.90;60.12
58761;BME280;44529;47.464;19.014;2023-05-08T06:45:22;100879.84;;;11.95;58.83
58761;BME280;44529;47.464;19.014;2023-05-08T06:48:24;100886.38;;;11.94;58.77
58761;BME280;44529;47.464;19.014;2023-05-08T06:51:30;100890.47;;;12.05;59.52
58761;BME280;44529;47.464;19.014;2023-05-08T06:54:32;100884.63;;;12.12;59.52
58761;BME280;44529;47.464;19.014;2023-05-08T06:57:35;100889.50;;;12.24;59.10
58761;BME280;44529;47.464;19.014;2023-05-08T07:00:37;100892.16;;;12.37;60.80
58761;BME280;44529;47.464;19.014;2023-05-08T07:03:39;100891.53;;;12.40;58.31
58761;BME280;44529;47.464;19.014;2023-05-08T07:06:42;100889.28;;;12.56;57.62
58761;BME280;44529;47.464;19.014;2023-05-08T07:09:45;100898.75;;;12.67;58.40
58761;BME280;44529;47.464;19.014;2023-05-08T07:12:48;100906.00;;;12.81;57.16
58761;BME280;44529;47.464;19.014;2023-05-08T07:15:50;100907.56;;;12.73;55.86
58761;BME280;44529;47.464;19.014;2023-05-08T07:18:53;100907.81;;;12.63;56.76
58761;BME280;44529;47.464;19.014;2023-05-08T07:21:55;100905.47;;;12.70;56.99
58761;BME280;44529;47.464;19.014;2023-05-08T07:24:58;100903.06;;;12.68;57.94
58761;BME280;44529;47.464;19.014;2023-05-08T07:28:00;100913.06;;;13.13;57.06
58761;BME280;44529;47.464;19.014;2023-05-08T07:31:04;100903.97;;;13.40;55.29
58761;BME280;44529;47.464;19.014;2023-05-08T07:34:10;100901.63;;;13.64;55.90
58761;BME280;44529;47.464;19.014;2023-05-08T07:37:12;100906.16;;;13.86;53.94
58761;BME280;44529;47.464;19.014;2023-05-08T07:40:15;100901.22;;;14.23;53.12
58761;BME280;44529;47.464;19.014;2023-05-08T07:43:17;100895.16;;;14.69;50.86
58761;BME280;44529;47.464;19.014;2023-05-08T07:46:20;100899.31;;;14.75;51.27
58761;BME280;44529;47.464;19.014;2023-05-08T07:49:23;100902.31;;;14.91;50.89
58761;BME280;44529;47.464;19.014;2023-05-08T07:52:25;100903.31;;;15.25;52.00
58761;BME280;44529;47.464;19.014;2023-05-08T07:55:28;100904.56;;;15.74;49.56
58761;BME280;44529;47.464;19.014;2023-05-08T07:58:30;100898.59;;;16.22;49.31
58761;BME280;44529;47.464;19.014;2023-05-08T08:01:33;100904.00;;;16.31;47.49
58761;BME280;44529;47.464;19.014;2023-05-08T08:04:35;100897.87;;;16.34;46.75
58761;BME280;44529;47.464;19.014;2023-05-08T08:07:37;100900.47;;;16.85;46.82
58761;BME280;44529;47.464;19.014;2023-05-08T08:10:40;100904.87;;;17.10;46.71
58761;BME280;44529;47.464;19.014;2023-05-08T08:13:42;100904.87;;;17.22;45.88
58761;BME280;44529;47.464;19.014;2023-05-08T08:16:45;100893.03;;;17.43;44.98
58761;BME280;44529;47.464;19.014;2023-05-08T08:19:47;100895.09;;;17.58;43.46
58761;BME280;44529;47.464;19.014;2023-05-08T08:22:50;100896.56;;;17.68;44.31
58761;BME280;44529;47.464;19.014;2023-05-08T08:25:52;100893.84;;;17.80;42.63
58761;BME280;44529;47.464;19.014;2023-05-08T08:28:55;100897.69;;;18.03;41.72
58761;BME280;44529;47.464;19.014;2023-05-08T08:31:57;100899.22;;;18.57;41.89
58761;BME280;44529;47.464;19.014;2023-05-08T08:35:00;100890.66;;;19.02;41.00
58761;BME280;44529;47.464;19.014;2023-05-08T08:38:03;100898.00;;;19.30;40.05
58761;BME280;44529;47.464;19.014;2023-05-08T08:41:05;100878.28;;;19.40;38.70
58761;BME280;44529;47.464;19.014;2023-05-08T08:44:08;100877.16;;;19.76;38.80
58761;BME280;44529;47.464;19.014;2023-05-08T08:47:11;100891.44;;;20.01;38.22
58761;BME280;44529;47.464;19.014;2023-05-08T08:50:18;100899.69;;;20.20;37.74
58761;BME280;44529;47.464;19.014;2023-05-08T08:53:25;100892.00;;;20.45;37.17
58761;BME280;44529;47.464;19.014;2023-05-08T08:56:29;100894.50;;;20.54;36.97
58761;BME280;44529;47.464;19.014;2023-05-08T08:59:32;100891.47;;;20.59;36.23
58761;BME280;44529;47.464;19.014;2023-05-08T09:02:35;100888.03;;;20.85;37.00
58761;BME280;44529;47.464;19.014;2023-05-08T09:05:38;100888.28;;;20.99;35.13
58761;BME280;44529;47.464;19.014;2023-05-08T09:08:41;100888.34;;;20.61;37.20
58761;BME280;44529;47.464;19.014;2023-05-08T09:11:45;100884.56;;;20.88;35.85
58761;BME280;44529;47.464;19.014;2023-05-08T09:17:51;100880.03;;;20.99;34.08
58761;BME280;44529;47.464;19.014;2023-05-08T09:20:53;100879.25;;;21.45;33.62
58761;BME280;44529;47.464;19.014;2023-05-08T09:24:00;100867.37;;;21.67;33.47
58761;BME280;44529;47.464;19.014;2023-05-08T09:27:16;100882.00;;;21.45;33.22
58761;BME280;44529;47.464;19.014;2023-05-08T09:30:21;100877.53;;;21.63;33.72
58761;BME280;44529;47.464;19.014;2023-05-08T09:33:26;100872.34;;;21.31;32.00
58761;BME280;44529;47.464;19.014;2023-05-08T09:36:28;100876.12;;;21.23;32.83
58761;BME280;44529;47.464;19.014;2023-05-08T09:39:33;100874.31;;;21.57;32.51
58761;BME280;44529;47.464;19.014;2023-05-08T09:42:39;100865.75;;;21.36;32.00
58761;BME280;44529;47.464;19.014;2023-05-08T09:45:41;100865.53;;;21.48;32.20
58761;BME280;44529;47.464;19.014;2023-05-08T09:48:44;100869.97;;;21.30;33.51
58761;BME280;44529;47.464;19.014;2023-05-08T09:51:51;100870.31;;;21.51;32.52
58761;BME280;44529;47.464;19.014;2023-05-08T09:55:07;100866.34;;;21.26;32.09
58761;BME280;44529;47.464;19.014;2023-05-08T09:58:10;100866.22;;;21.42;33.39
58761;BME280;44529;47.464;19.014;2023-05-08T10:01:30;100861.63;;;21.49;33.00
58761;BME280;44529;47.464;19.014;2023-05-08T10:04:35;100864.53;;;21.33;32.29
58761;BME280;44529;47.464;19.014;2023-05-08T10:07:37;100858.59;;;20.86;33.44
58761;BME280;44529;47.464;19.014;2023-05-08T10:10:40;100862.81;;;21.25;33.32
58761;BME280;44529;47.464;19.014;2023-05-08T10:13:45;100861.50;;;21.42;34.14
58761;BME280;44529;47.464;19.014;2023-05-08T10:16:51;100849.38;;;21.20;34.52
58761;BME280;44529;47.464;19.014;2023-05-08T10:19:57;100849.72;;;21.19;32.63
58761;BME280;44529;47.464;19.014;2023-05-08T10:23:01;100853.13;;;21.12;32.95
58761;BME280;44529;47.464;19.014;2023-05-08T10:26:18;100835.72;;;21.04;32.93
58761;BME280;44529;47.464;19.014;2023-05-08T10:32:42;100839.81;;;21.37;33.71
58761;BME280;44529;47.464;19.014;2023-05-08T10:38:48;100839.03;;;21.14;32.92
58761;BME280;44529;47.464;19.014;2023-05-08T10:41:51;100824.47;;;20.87;33.64
58761;BME280;44529;47.464;19.014;2023-05-08T10:44:54;100832.72;;;20.87;34.40
58761;BME280;44529;47.464;19.014;2023-05-08T10:48:10;100834.72;;;20.90;33.68
58761;BME280;44529;47.464;19.014;2023-05-08T10:52:05;100834.03;;;20.96;32.19
58761;BME280;44529;47.464;19.014;2023-05-08T10:55:06;100825.94;;;20.80;33.13
58761;BME280;44529;47.464;19.014;2023-05-08T11:01:15;100817.84;;;20.91;32.25
58761;BME280;44529;47.464;19.014;2023-05-08T11:04:23;100819.06;;;20.71;32.77
58761;BME280;44529;47.464;19.014;2023-05-08T11:07:42;100808.69;;;20.83;33.23
58761;BME280;44529;47.464;19.014;2023-05-08T11:17:09;100802.84;;;20.62;31.39
58761;BME280;44529;47.464;19.014;2023-05-08T11:20:12;100807.03;;;20.37;32.07
58761;BME280;44529;47.464;19.014;2023-05-08T11:23:25;100808.62;;;20.38;31.93
58761;BME280;44529;47.464;19.014;2023-05-08T11:26:38;100806.31;;;20.40;32.80
58761;BME280;44529;47.464;19.014;2023-05-08T11:29:43;100794.75;;;20.31;32.25
58761;BME280;44529;47.464;19.014;2023-05-08T11:33:12;100801.91;;;20.54;33.84
58761;BME280;44529;47.464;19.014;2023-05-08T11:36:16;100791.06;;;20.42;32.59
58761;BME280;44529;47.464;19.014;2023-05-08T11:39:24;100796.25;;;20.47;32.22
58761;BME280;44529;47.464;19.014;2023-05-08T11:45:29;100787.25;;;20.70;32.46
58761;BME280;44529;47.464;19.014;2023-05-08T11:48:32;100787.44;;;20.80;32.03
58761;BME280;44529;47.464;19.014;2023-05-08T11:51:36;100786.56;;;20.76;32.12
58761;BME280;44529;47.464;19.014;2023-05-08T11:54:39;100792.25;;;20.64;32.23
58761;BME280;44529;47.464;19.014;2023-05-08T11:57:41;100786.69;;;20.61;31.86
58761;BME280;44529;47.464;19.014;2023-05-08T12:00:45;100789.44;;;20.61;32.58
58761;BME280;44529;47.464;19.014;2023-05-08T12:03:59;100777.66;;;20.41;32.04
58761;BME280;44529;47.464;19.014;2023-05-08T12:07:01;100781.59;;;20.40;32.52
58761;BME280;44529;47.464;19.014;2023-05-08T12:10:04;100786.34;;;20.62;31.97
58761;BME280;44529;47.464;19.014;2023-05-08T12:13:19;100780.78;;;20.81;31.82
58761;BME280;44529;47.464;19.014;2023-05-08T12:16:22;100787.00;;;20.78;31.58
58761;BME280;44529;47.464;19.014;2023-05-08T12:19:26;100780.56;;;20.48;32.74
58761;BME280;44529;47.464;19.014;2023-05-08T12:22:28;100787.88;;;20.40;34.14
58761;BME280;44529;47.464;19.014;2023-05-08T12:25:31;100784.00;;;20.64;33.96
58761;BME280;44529;47.464;19.014;2023-05-08T12:28:33;100773.25;;;20.78;33.92
58761;BME280;44529;47.464;19.014;2023-05-08T12:31:36;100768.44;;;20.72;33.91
58761;BME280;44529;47.464;19.014;2023-05-08T12:34:39;100782.00;;;20.84;32.61
58761;BME280;44529;47.464;19.014;2023-05-08T12:37:41;100776.19;;;20.89;32.44
58761;BME280;44529;47.464;19.014;2023-05-08T12:40:45;100787.66;;;20.95;32.89
58761;BME280;44529;47.464;19.014;2023-05-08T12:43:50;100781.31;;;20.91;32.25
58761;BME280;44529;47.464;19.014;2023-05-08T12:46:54;100783.22;;;20.87;32.84
58761;BME280;44529;47.464;19.014;2023-05-08T12:49:57;100781.81;;;20.73;31.34
58761;BME280;44529;47.464;19.014;2023-05-08T12:53:03;100778.72;;;20.75;31.53
58761;BME280;44529;47.464;19.014;2023-05-08T12:56:06;100793.06;;;20.88;31.44
58761;BME280;44529;47.464;19.014;2023-05-08T12:59:08;100783.47;;;20.78;32.04
58761;BME280;44529;47.464;19.014;2023-05-08T13:02:16;100775.22;;;20.78;32.61
58761;BME280;44529;47.464;19.014;2023-05-08T13:05:22;100781.56;;;20.82;30.89
58761;BME280;44529;47.464;19.014;2023-05-08T13:11:33;100774.16;;;20.86;31.90
58761;BME280;44529;47.464;19.014;2023-05-08T13:14:36;100772.69;;;20.92;31.18
58761;BME280;44529;47.464;19.014;2023-05-08T13:17:38;100769.59;;;20.94;30.34
58761;BME280;44529;47.464;19.014;2023-05-08T13:20:41;100775.87;;;20.94;30.59
58761;BME280;44529;47.464;19.014;2023-05-08T13:23:44;100778.44;;;20.83;29.58
58761;BME280;44529;47.464;19.014;2023-05-08T13:26:47;100777.34;;;20.88;29.24
58761;BME280;44529;47.464;19.014;2023-05-08T13:29:49;100784.91;;;20.95;29.89
58761;BME280;44529;47.464;19.014;2023-05-08T13:32:52;100780.00;;;20.81;29.84
58761;BME280;44529;47.464;19.014;2023-05-08T13:35:55;100773.31;;;20.59;30.13
58761;BME280;44529;47.464;19.014;2023-05-08T13:38:57;100772.03;;;20.76;31.32
58761;BME280;44529;47.464;19.014;2023-05-08T13:41:59;100782.37;;;20.82;30.63
58761;BME280;44529;47.464;19.014;2023-05-08T13:45:03;100779.87;;;20.74;29.63
58761;BME280;44529;47.464;19.014;2023-05-08T13:48:06;100768.44;;;20.72;29.36
58761;BME280;44529;47.464;19.014;2023-05-08T13:51:08;100774.03;;;20.79;29.37
58761;BME280;44529;47.464;19.014;2023-05-08T13:54:10;100771.19;;;20.72;29.90
58761;BME280;44529;47.464;19.014;2023-05-08T13:57:12;100769.09;;;20.65;29.96
58761;BME280;44529;47.464;19.014;2023-05-08T14:00:15;100781.25;;;20.64;27.53
58761;BME280;44529;47.464;19.014;2023-05-08T14:03:17;100773.56;;;20.50;28.07
58761;BME280;44529;47.464;19.014;2023-05-08T14:06:20;100781.84;;;20.54;27.67
58761;BME280;44529;47.464;19.014;2023-05-08T14:09:22;100780.56;;;20.48;25.94
58761;BME280;44529;47.464;19.014;2023-05-08T14:12:25;100788.03;;;20.47;26.60
58761;BME280;44529;47.464;19.014;2023-05-08T14:15:27;100788.59;;;20.37;26.93
58761;BME280;44529;47.464;19.014;2023-05-08T14:18:38;100785.91;;;20.41;26.19
58761;BME280;44529;47.464;19.014;2023-05-08T14:21:41;100780.38;;;20.37;26.31
58761;BME280;44529;47.464;19.014;2023-05-08T14:24:45;100785.44;;;20.35;24.98
58761;BME280;44529;47.464;19.014;2023-05-08T14:27:47;100793.75;;;20.19;24.96
58761;BME280;44529;47.464;19.014;2023-05-08T14:30:49;100786.19;;;20.13;24.64
58761;BME280;44529;47.464;19.014;2023-05-08T14:33:51;100787.50;;;19.99;25.17
58761;BME280;44529;47.464;19.014;2023-05-08T14:36:54;100783.22;;;20.02;24.95
58761;BME280;44529;47.464;19.014;2023-05-08T14:39:56;100793.53;;;20.09;25.34
58761;BME280;44529;47.464;19.014;2023-05-08T14:43:00;100790.00;;;20.08;24.32
58761;BME280;44529;47.464;19.014;2023-05-08T14:46:02;100799.34;;;20.04;23.99
58761;BME280;44529;47.464;19.014;2023-05-08T14:49:05;100793.63;;;19.93;24.64
58761;BME280;44529;47.464;19.014;2023-05-08T14:52:07;100786.09;;;19.90;25.80
58761;BME280;44529;47.464;19.014;2023-05-08T14:55:10;100788.78;;;19.86;24.77
58761;BME280;44529;47.464;19.014;2023-05-08T14:58:13;100781.06;;;19.92;26.09
58761;BME280;44529;47.464;19.014;2023-05-08T15:01:16;100782.94;;;19.88;24.54
58761;BME280;44529;47.464;19.014;2023-05-08T15:04:18;100781.91;;;19.96;22.59
58761;BME280;44529;47.464;19.014;2023-05-08T15:07:21;100788.84;;;19.90;23.64
58761;BME280;44529;47.464;19.014;2023-05-08T15:10:23;100784.53;;;19.89;23.92
58761;BME280;44529;47.464;19.014;2023-05-08T15:13:25;100787.78;;;19.94;23.74
58761;BME280;44529;47.464;19.014;2023-05-08T15:16:28;100791.59;;;19.90;25.00
58761;BME280;44529;47.464;19.014;2023-05-08T15:19:31;100785.03;;;19.75;24.13
58761;BME280;44529;47.464;19.014;2023-05-08T15:22:33;100786.75;;;19.83;24.96
58761;BME280;44529;47.464;19.014;2023-05-08T15:25:36;100782.37;;;19.79;25.20
58761;BME280;44529;47.464;19.014;2023-05-08T15:28:38;100778.53;;;19.83;25.34
58761;BME280;44529;47.464;19.014;2023-05-08T15:31:42;100781.78;;;19.89;24.96
58761;BME280;44529;47.464;19.014;2023-05-08T15:34:44;100785.53;;;20.00;25.01
58761;BME280;44529;47.464;19.014;2023-05-08T15:37:47;100783.34;;;19.90;25.29
58761;BME280;44529;47.464;19.014;2023-05-08T15:40:49;100791.91;;;19.85;25.99
58761;BME280;44529;47.464;19.014;2023-05-08T15:43:51;100778.09;;;19.81;26.67
58761;BME280;44529;47.464;19.014;2023-05-08T15:46:54;100790.75;;;19.86;27.50
58761;BME280;44529;47.464;19.014;2023-05-08T15:49:56;100784.75;;;19.80;27.78
58761;BME280;44529;47.464;19.014;2023-05-08T15:52:58;100778.84;;;19.78;27.67
58761;BME280;44529;47.464;19.014;2023-05-08T15:56:04;100779.81;;;19.70;28.91
58761;BME280;44529;47.464;19.014;2023-05-08T15:59:06;100780.03;;;19.61;29.02
58761;BME280;44529;47.464;19.014;2023-05-08T16:02:09;100779.50;;;19.56;28.85
58761;BME280;44529;47.464;19.014;2023-05-08T16:05:11;100778.59;;;19.67;28.66
58761;BME280;44529;47.464;19.014;2023-05-08T16:08:14;100779.47;;;19.71;28.91
58761;BME280;44529;47.464;19.014;2023-05-08T16:11:16;100777.88;;;19.70;29.59
58761;BME280;44529;47.464;19.014;2023-05-08T16:14:19;100778.22;;;19.69;30.26
58761;BME280;44529;47.464;19.014;2023-05-08T16:17:21;100779.34;;;19.64;30.76
58761;BME280;44529;47.464;19.014;2023-05-08T16:20:24;100779.13;;;19.57;31.03
58761;BME280;44529;47.464;19.014;2023-05-08T16:23:26;100773.56;;;19.54;31.75
58761;BME280;44529;47.464;19.014;2023-05-08T16:26:29;100779.44;;;19.52;33.28
58761;BME280;44529;47.464;19.014;2023-05-08T16:29:31;100797.31;;;19.46;33.93
58761;BME280;44529;47.464;19.014;2023-05-08T16:32:33;100787.69;;;19.36;34.73
58761;BME280;44529;47.464;19.014;2023-05-08T16:35:35;100793.28;;;19.24;35.21
58761;BME280;44529;47.464;19.014;2023-05-08T16:38:38;100799.84;;;19.19;35.58
58761;BME280;44529;47.464;19.014;2023-05-08T16:41:40;100800.53;;;19.16;36.36